sensor_id;sensor_type;location;lat;lon;timestamp;P1;durP1;ratioP1;P2;durP2;ratioP2
77866;SDS011;67271;59.120;37.970;2024-01-30T00:02:27;4.95;;;3.03;;
77866;SDS011;67271;59.120;37.970;2024-01-30T00:04:53;12.13;;;3.28;;
77866;SDS011;67271;59.120;37.970;2024-01-30T00:07:19;3.20;;;1.90;;
77866;SDS011;67271;59.120;37.970;2024-01-30T00:09:46;6.55;;;3.03;;
77866;SDS011;67271;59.120;37.970;2024-01-30T00:12:13;9.30;;;3.25;;
77866;SDS011;67271;59.120;37.970;2024-01-30T00:14:41;5.22;;;2.65;;
77866;SDS011;67271;59.120;37.970;2024-01-30T00:17:08;5.72;;;2.95;;
77866;SDS011;67271;59.120;37.970;2024-01-30T00:19:34;5.97;;;3.30;;
77866;SDS011;67271;59.120;37.970;2024-01-30T00:22:00;5.03;;;2.97;;
77866;SDS011;67271;59.120;37.970;2024-01-30T00:24:25;9.00;;;2.97;;
77866;SDS011;67271;59.120;37.970;2024-01-30T00:26:51;7.05;;;4.45;;
77866;SDS011;67271;59.120;37.970;2024-01-30T00:29:17;9.57;;;4.20;;
77866;SDS011;67271;59.120;37.970;2024-01-30T00:31:45;20.08;;;6.10;;
77866;SDS011;67271;59.120;37.970;2024-01-30T00:34:11;9.63;;;3.63;;
77866;SDS011;67271;59.120;37.970;2024-01-30T00:36:37;17.88;;;5.07;;
77866;SDS011;67271;59.120;37.970;2024-01-30T00:39:03;13.70;;;4.20;;
77866;SDS011;67271;59.120;37.970;2024-01-30T00:41:32;14.07;;;4.88;;
77866;SDS011;67271;59.120;37.970;2024-01-30T00:43:58;11.15;;;4.45;;
77866;SDS011;67271;59.120;37.970;2024-01-30T00:46:24;13.65;;;4.72;;
77866;SDS011;67271;59.120;37.970;2024-01-30T00:48:49;19.08;;;4.72;;
77866;SDS011;67271;59.120;37.970;2024-01-30T00:51:15;9.30;;;3.90;;
77866;SDS011;67271;59.120;37.970;2024-01-30T00:53:41;19.33;;;4.88;;
77866;SDS011;67271;59.120;37.970;2024-01-30T00:56:07;10.63;;;4.93;;
77866;SDS011;67271;59.120;37.970;2024-01-30T00:58:33;9.70;;;4.60;;
77866;SDS011;67271;59.120;37.970;2024-01-30T01:00:59;7.45;;;4.78;;
77866;SDS011;67271;59.120;37.970;2024-01-30T01:03:25;27.70;;;6.68;;
77866;SDS011;67271;59.120;37.970;2024-01-30T01:05:51;25.52;;;7.40;;
77866;SDS011;67271;59.120;37.970;2024-01-30T01:08:17;23.08;;;6.22;;
77866;SDS011;67271;59.120;37.970;2024-01-30T01:10:43;18.80;;;6.55;;
77866;SDS011;67271;59.120;37.970;2024-01-30T01:13:09;20.98;;;6.28;;
77866;SDS011;67271;59.120;37.970;2024-01-30T01:15:35;11.70;;;4.28;;
77866;SDS011;67271;59.120;37.970;2024-01-30T01:18:01;9.60;;;3.47;;
77866;SDS011;67271;59.120;37.970;2024-01-30T01:20:27;10.13;;;4.07;;
77866;SDS011;67271;59.120;37.970;2024-01-30T01:22:53;8.25;;;3.55;;
77866;SDS011;67271;59.120;37.970;2024-01-30T01:25:19;8.98;;;4.30;;
77866;SDS011;67271;59.120;37.970;2024-01-30T01:27:45;14.70;;;3.78;;
77866;SDS011;67271;59.120;37.970;2024-01-30T01:30:16;10.18;;;4.07;;
77866;SDS011;67271;59.120;37.970;2024-01-30T01:32:48;10.98;;;4.75;;
77866;SDS011;67271;59.120;37.970;2024-01-30T01:35:21;13.25;;;4.93;;
77866;SDS011;67271;59.120;37.970;2024-01-30T01:37:48;14.30;;;4.88;;
77866;SDS011;67271;59.120;37.970;2024-01-30T01:40:26;12.98;;;4.80;;
77866;SDS011;67271;59.120;37.970;2024-01-30T01:42:53;13.52;;;4.82;;
77866;SDS011;67271;59.120;37.970;2024-01-30T01:45:20;16.80;;;4.72;;
77866;SDS011;67271;59.120;37.970;2024-01-30T01:47:50;7.53;;;4.40;;
77866;SDS011;67271;59.120;37.970;2024-01-30T01:50:16;8.05;;;4.25;;
77866;SDS011;67271;59.120;37.970;2024-01-30T01:55:16;5.70;;;3.60;;
77866;SDS011;67271;59.120;37.970;2024-01-30T01:57:47;26.25;;;5.70;;
77866;SDS011;67271;59.120;37.970;2024-01-30T02:00:13;16.55;;;3.97;;
77866;SDS011;67271;59.120;37.970;2024-01-30T02:02:39;10.63;;;4.10;;
77866;SDS011;67271;59.120;37.970;2024-01-30T02:05:07;5.43;;;3.92;;
77866;SDS011;67271;59.120;37.970;2024-01-30T02:07:34;6.55;;;4.20;;
77866;SDS011;67271;59.120;37.970;2024-01-30T02:09:59;14.93;;;4.55;;
77866;SDS011;67271;59.120;37.970;2024-01-30T02:12:25;10.30;;;4.00;;
77866;SDS011;67271;59.120;37.970;2024-01-30T02:14:51;15.90;;;5.32;;
77866;SDS011;67271;59.120;37.970;2024-01-30T02:17:18;5.63;;;3.53;;
77866;SDS011;67271;59.120;37.970;2024-01-30T02:19:44;5.47;;;3.58;;
77866;SDS011;67271;59.120;37.970;2024-01-30T02:22:10;14.90;;;4.90;;
77866;SDS011;67271;59.120;37.970;2024-01-30T02:24:36;11.45;;;4.45;;
77866;SDS011;67271;59.120;37.970;2024-01-30T02:27:02;9.90;;;4.97;;
77866;SDS011;67271;59.120;37.970;2024-01-30T02:29:28;13.75;;;4.20;;
77866;SDS011;67271;59.120;37.970;2024-01-30T02:31:54;12.43;;;4.65;;
77866;SDS011;67271;59.120;37.970;2024-01-30T02:34:19;12.50;;;4.95;;
77866;SDS011;67271;59.120;37.970;2024-01-30T02:36:46;14.90;;;4.45;;
77866;SDS011;67271;59.120;37.970;2024-01-30T02:39:12;16.85;;;4.30;;
77866;SDS011;67271;59.120;37.970;2024-01-30T02:41:38;13.65;;;4.85;;
77866;SDS011;67271;59.120;37.970;2024-01-30T02:44:04;13.10;;;4.57;;
77866;SDS011;67271;59.120;37.970;2024-01-30T02:46:29;13.60;;;4.60;;
77866;SDS011;67271;59.120;37.970;2024-01-30T02:48:55;18.55;;;5.00;;
77866;SDS011;67271;59.120;37.970;2024-01-30T02:51:21;8.88;;;4.35;;
77866;SDS011;67271;59.120;37.970;2024-01-30T02:53:47;10.38;;;5.18;;
77866;SDS011;67271;59.120;37.970;2024-01-30T02:56:13;21.20;;;5.88;;
77866;SDS011;67271;59.120;37.970;2024-01-30T02:58:39;15.80;;;6.85;;
77866;SDS011;67271;59.120;37.970;2024-01-30T03:01:06;25.13;;;11.90;;
77866;SDS011;67271;59.120;37.970;2024-01-30T03:03:32;17.30;;;6.53;;
77866;SDS011;67271;59.120;37.970;2024-01-30T03:06:00;29.17;;;16.52;;
77866;SDS011;67271;59.120;37.970;2024-01-30T03:08:26;35.50;;;14.70;;
77866;SDS011;67271;59.120;37.970;2024-01-30T03:10:52;27.90;;;17.17;;
77866;SDS011;67271;59.120;37.970;2024-01-30T03:13:18;33.53;;;16.45;;
77866;SDS011;67271;59.120;37.970;2024-01-30T03:15:44;20.38;;;11.40;;
77866;SDS011;67271;59.120;37.970;2024-01-30T03:18:10;22.20;;;9.63;;
77866;SDS011;67271;59.120;37.970;2024-01-30T03:20:35;32.92;;;15.75;;
77866;SDS011;67271;59.120;37.970;2024-01-30T03:23:01;20.55;;;12.45;;
77866;SDS011;67271;59.120;37.970;2024-01-30T03:25:28;16.85;;;10.50;;
77866;SDS011;67271;59.120;37.970;2024-01-30T03:27:53;42.00;;;20.00;;
77866;SDS011;67271;59.120;37.970;2024-01-30T03:30:19;19.13;;;11.05;;
77866;SDS011;67271;59.120;37.970;2024-01-30T03:32:45;51.33;;;19.77;;
77866;SDS011;67271;59.120;37.970;2024-01-30T03:35:11;31.13;;;12.88;;
77866;SDS011;67271;59.120;37.970;2024-01-30T03:37:37;41.42;;;18.05;;
77866;SDS011;67271;59.120;37.970;2024-01-30T03:40:03;40.45;;;20.13;;
77866;SDS011;67271;59.120;37.970;2024-01-30T03:42:29;18.70;;;12.15;;
77866;SDS011;67271;59.120;37.970;2024-01-30T03:44:56;37.67;;;17.65;;
77866;SDS011;67271;59.120;37.970;2024-01-30T03:47:21;26.63;;;13.65;;
77866;SDS011;67271;59.120;37.970;2024-01-30T03:49:47;34.22;;;17.48;;
77866;SDS011;67271;59.120;37.970;2024-01-30T03:52:13;30.02;;;16.38;;
77866;SDS011;67271;59.120;37.970;2024-01-30T03:54:39;54.60;;;20.30;;
77866;SDS011;67271;59.120;37.970;2024-01-30T03:57:05;44.13;;;21.58;;
77866;SDS011;67271;59.120;37.970;2024-01-30T03:59:31;48.97;;;23.35;;
77866;SDS011;67271;59.120;37.970;2024-01-30T04:01:57;53.63;;;24.52;;
77866;SDS011;67271;59.120;37.970;2024-01-30T04:04:23;44.50;;;16.02;;
77866;SDS011;67271;59.120;37.970;2024-01-30T04:06:49;44.60;;;22.55;;
77866;SDS011;67271;59.120;37.970;2024-01-30T04:09:14;41.60;;;18.70;;
77866;SDS011;67271;59.120;37.970;2024-01-30T04:11:41;34.72;;;17.17;;
77866;SDS011;67271;59.120;37.970;2024-01-30T04:14:07;34.88;;;19.60;;
77866;SDS011;67271;59.120;37.970;2024-01-30T04:16:34;44.95;;;21.35;;
77866;SDS011;67271;59.120;37.970;2024-01-30T04:19:00;28.02;;;15.25;;
77866;SDS011;67271;59.120;37.970;2024-01-30T04:21:26;21.23;;;9.30;;
77866;SDS011;67271;59.120;37.970;2024-01-30T04:23:51;33.35;;;17.58;;
77866;SDS011;67271;59.120;37.970;2024-01-30T04:26:17;46.45;;;19.70;;
77866;SDS011;67271;59.120;37.970;2024-01-30T04:28:46;46.00;;;16.30;;
77866;SDS011;67271;59.120;37.970;2024-01-30T04:31:12;17.48;;;6.90;;
77866;SDS011;67271;59.120;37.970;2024-01-30T04:33:38;10.30;;;5.18;;
77866;SDS011;67271;59.120;37.970;2024-01-30T04:36:07;8.43;;;4.50;;
77866;SDS011;67271;59.120;37.970;2024-01-30T04:38:35;7.88;;;3.00;;
77866;SDS011;67271;59.120;37.970;2024-01-30T04:41:01;7.57;;;3.28;;
77866;SDS011;67271;59.120;37.970;2024-01-30T04:43:27;9.23;;;4.15;;
77866;SDS011;67271;59.120;37.970;2024-01-30T04:45:53;7.78;;;4.10;;
77866;SDS011;67271;59.120;37.970;2024-01-30T04:48:19;7.43;;;4.18;;
77866;SDS011;67271;59.120;37.970;2024-01-30T04:50:45;11.02;;;4.68;;
77866;SDS011;67271;59.120;37.970;2024-01-30T04:53:10;9.15;;;4.38;;
77866;SDS011;67271;59.120;37.970;2024-01-30T04:55:36;12.35;;;5.03;;
77866;SDS011;67271;59.120;37.970;2024-01-30T04:58:02;9.65;;;4.30;;
77866;SDS011;67271;59.120;37.970;2024-01-30T05:00:28;7.28;;;3.75;;
77866;SDS011;67271;59.120;37.970;2024-01-30T05:02:57;12.55;;;4.80;;
77866;SDS011;67271;59.120;37.970;2024-01-30T05:05:23;6.93;;;3.13;;
77866;SDS011;67271;59.120;37.970;2024-01-30T05:07:48;6.85;;;2.83;;
77866;SDS011;67271;59.120;37.970;2024-01-30T05:10:14;15.80;;;4.97;;
77866;SDS011;67271;59.120;37.970;2024-01-30T05:12:40;5.50;;;2.92;;
77866;SDS011;67271;59.120;37.970;2024-01-30T05:15:06;9.23;;;4.72;;
77866;SDS011;67271;59.120;37.970;2024-01-30T05:17:32;8.32;;;3.75;;
77866;SDS011;67271;59.120;37.970;2024-01-30T05:19:58;16.40;;;6.20;;
77866;SDS011;67271;59.120;37.970;2024-01-30T05:22:24;14.73;;;5.95;;
77866;SDS011;67271;59.120;37.970;2024-01-30T05:24:50;17.65;;;7.43;;
77866;SDS011;67271;59.120;37.970;2024-01-30T05:27:16;12.90;;;5.72;;
77866;SDS011;67271;59.120;37.970;2024-01-30T05:29:42;35.55;;;12.05;;
77866;SDS011;67271;59.120;37.970;2024-01-30T05:32:08;42.78;;;14.65;;
77866;SDS011;67271;59.120;37.970;2024-01-30T05:34:34;40.10;;;15.38;;
77866;SDS011;67271;59.120;37.970;2024-01-30T05:37:00;38.80;;;15.38;;
77866;SDS011;67271;59.120;37.970;2024-01-30T05:39:26;38.72;;;15.65;;
77866;SDS011;67271;59.120;37.970;2024-01-30T05:41:52;44.03;;;19.23;;
77866;SDS011;67271;59.120;37.970;2024-01-30T05:44:18;49.13;;;18.27;;
77866;SDS011;67271;59.120;37.970;2024-01-30T05:46:44;46.72;;;20.92;;
77866;SDS011;67271;59.120;37.970;2024-01-30T05:49:11;43.35;;;21.38;;
77866;SDS011;67271;59.120;37.970;2024-01-30T05:51:37;46.50;;;20.63;;
77866;SDS011;67271;59.120;37.970;2024-01-30T05:54:03;27.55;;;17.45;;
77866;SDS011;67271;59.120;37.970;2024-01-30T05:56:29;22.60;;;12.02;;
77866;SDS011;67271;59.120;37.970;2024-01-30T05:58:55;27.90;;;15.32;;
77866;SDS011;67271;59.120;37.970;2024-01-30T06:01:21;25.88;;;13.23;;
77866;SDS011;67271;59.120;37.970;2024-01-30T06:03:47;32.05;;;11.05;;
77866;SDS011;67271;59.120;37.970;2024-01-30T06:06:13;29.00;;;9.68;;
77866;SDS011;67271;59.120;37.970;2024-01-30T06:08:39;14.98;;;7.25;;
77866;SDS011;67271;59.120;37.970;2024-01-30T06:11:04;22.70;;;9.38;;
77866;SDS011;67271;59.120;37.970;2024-01-30T06:13:31;28.55;;;9.50;;
77866;SDS011;67271;59.120;37.970;2024-01-30T06:15:57;23.35;;;8.40;;
77866;SDS011;67271;59.120;37.970;2024-01-30T06:18:23;31.67;;;8.25;;
77866;SDS011;67271;59.120;37.970;2024-01-30T06:20:49;21.05;;;7.93;;
77866;SDS011;67271;59.120;37.970;2024-01-30T06:23:15;14.20;;;7.68;;
77866;SDS011;67271;59.120;37.970;2024-01-30T06:25:41;20.83;;;7.80;;
77866;SDS011;67271;59.120;37.970;2024-01-30T06:28:06;24.48;;;8.60;;
77866;SDS011;67271;59.120;37.970;2024-01-30T06:30:32;14.45;;;6.32;;
77866;SDS011;67271;59.120;37.970;2024-01-30T06:32:58;17.00;;;8.18;;
77866;SDS011;67271;59.120;37.970;2024-01-30T06:35:24;20.98;;;10.10;;
77866;SDS011;67271;59.120;37.970;2024-01-30T06:37:50;34.85;;;12.40;;
77866;SDS011;67271;59.120;37.970;2024-01-30T06:40:16;36.53;;;14.13;;
77866;SDS011;67271;59.120;37.970;2024-01-30T06:42:42;26.13;;;9.32;;
77866;SDS011;67271;59.120;37.970;2024-01-30T06:45:08;18.63;;;4.65;;
77866;SDS011;67271;59.120;37.970;2024-01-30T06:47:34;20.15;;;8.00;;
77866;SDS011;67271;59.120;37.970;2024-01-30T06:50:00;20.77;;;8.15;;
77866;SDS011;67271;59.120;37.970;2024-01-30T06:52:27;14.27;;;7.13;;
77866;SDS011;67271;59.120;37.970;2024-01-30T06:54:53;17.42;;;6.47;;
77866;SDS011;67271;59.120;37.970;2024-01-30T06:57:19;14.23;;;5.47;;
77866;SDS011;67271;59.120;37.970;2024-01-30T06:59:45;19.75;;;6.45;;
77866;SDS011;67271;59.120;37.970;2024-01-30T07:02:12;25.45;;;6.10;;
77866;SDS011;67271;59.120;37.970;2024-01-30T07:04:38;18.00;;;7.80;;
77866;SDS011;67271;59.120;37.970;2024-01-30T07:07:04;25.10;;;6.13;;
77866;SDS011;67271;59.120;37.970;2024-01-30T07:09:31;19.08;;;6.57;;
77866;SDS011;67271;59.120;37.970;2024-01-30T07:11:57;12.82;;;5.45;;
77866;SDS011;67271;59.120;37.970;2024-01-30T07:14:25;18.38;;;7.00;;
77866;SDS011;67271;59.120;37.970;2024-01-30T07:16:51;21.15;;;7.05;;
77866;SDS011;67271;59.120;37.970;2024-01-30T07:19:17;12.60;;;5.43;;
77866;SDS011;67271;59.120;37.970;2024-01-30T07:21:43;19.02;;;5.57;;
77866;SDS011;67271;59.120;37.970;2024-01-30T07:24:09;17.88;;;6.00;;
77866;SDS011;67271;59.120;37.970;2024-01-30T07:26:35;14.02;;;4.93;;
77866;SDS011;67271;59.120;37.970;2024-01-30T07:29:01;5.00;;;3.40;;
77866;SDS011;67271;59.120;37.970;2024-01-30T07:31:27;6.80;;;3.33;;
77866;SDS011;67271;59.120;37.970;2024-01-30T07:33:53;6.00;;;3.88;;
77866;SDS011;67271;59.120;37.970;2024-01-30T07:36:19;6.35;;;2.58;;
77866;SDS011;67271;59.120;37.970;2024-01-30T07:38:45;6.15;;;3.88;;
77866;SDS011;67271;59.120;37.970;2024-01-30T07:41:11;8.30;;;3.35;;
77866;SDS011;67271;59.120;37.970;2024-01-30T07:43:38;9.57;;;3.40;;
77866;SDS011;67271;59.120;37.970;2024-01-30T07:46:04;8.77;;;3.25;;
77866;SDS011;67271;59.120;37.970;2024-01-30T07:48:32;8.60;;;4.32;;
77866;SDS011;67271;59.120;37.970;2024-01-30T07:50:59;8.15;;;3.63;;
77866;SDS011;67271;59.120;37.970;2024-01-30T07:53:25;6.57;;;2.97;;
77866;SDS011;67271;59.120;37.970;2024-01-30T07:55:52;9.80;;;3.53;;
77866;SDS011;67271;59.120;37.970;2024-01-30T07:58:18;9.68;;;4.25;;
77866;SDS011;67271;59.120;37.970;2024-01-30T08:00:44;6.30;;;4.10;;
77866;SDS011;67271;59.120;37.970;2024-01-30T08:03:10;11.45;;;3.75;;
77866;SDS011;67271;59.120;37.970;2024-01-30T08:05:37;5.97;;;4.13;;
77866;SDS011;67271;59.120;37.970;2024-01-30T08:08:04;9.68;;;5.00;;
77866;SDS011;67271;59.120;37.970;2024-01-30T08:10:30;6.90;;;3.75;;
77866;SDS011;67271;59.120;37.970;2024-01-30T08:12:56;12.45;;;4.45;;
77866;SDS011;67271;59.120;37.970;2024-01-30T08:15:22;8.20;;;3.72;;
77866;SDS011;67271;59.120;37.970;2024-01-30T08:17:48;10.57;;;5.15;;
77866;SDS011;67271;59.120;37.970;2024-01-30T08:20:13;12.90;;;5.40;;
77866;SDS011;67271;59.120;37.970;2024-01-30T08:22:39;10.38;;;4.03;;
77866;SDS011;67271;59.120;37.970;2024-01-30T08:25:06;8.68;;;3.30;;
77866;SDS011;67271;59.120;37.970;2024-01-30T08:27:32;8.85;;;4.95;;
77866;SDS011;67271;59.120;37.970;2024-01-30T08:29:58;13.07;;;5.43;;
77866;SDS011;67271;59.120;37.970;2024-01-30T08:32:24;9.05;;;5.57;;
77866;SDS011;67271;59.120;37.970;2024-01-30T08:34:50;10.00;;;3.97;;
77866;SDS011;67271;59.120;37.970;2024-01-30T08:37:16;9.98;;;4.43;;
77866;SDS011;67271;59.120;37.970;2024-01-30T08:39:43;12.50;;;5.47;;
77866;SDS011;67271;59.120;37.970;2024-01-30T08:42:09;11.02;;;4.60;;
77866;SDS011;67271;59.120;37.970;2024-01-30T08:44:35;10.32;;;4.43;;
77866;SDS011;67271;59.120;37.970;2024-01-30T08:47:01;16.35;;;4.25;;
77866;SDS011;67271;59.120;37.970;2024-01-30T08:49:28;11.20;;;5.13;;
77866;SDS011;67271;59.120;37.970;2024-01-30T08:51:54;19.35;;;3.97;;
77866;SDS011;67271;59.120;37.970;2024-01-30T08:54:20;18.60;;;6.00;;
77866;SDS011;67271;59.120;37.970;2024-01-30T08:56:46;9.27;;;5.38;;
77866;SDS011;67271;59.120;37.970;2024-01-30T08:59:12;6.47;;;4.38;;
77866;SDS011;67271;59.120;37.970;2024-01-30T09:01:37;5.93;;;3.22;;
77866;SDS011;67271;59.120;37.970;2024-01-30T09:04:03;17.35;;;4.63;;
77866;SDS011;67271;59.120;37.970;2024-01-30T09:06:29;10.63;;;4.38;;
77866;SDS011;67271;59.120;37.970;2024-01-30T09:08:55;10.43;;;4.82;;
77866;SDS011;67271;59.120;37.970;2024-01-30T09:11:23;13.45;;;5.32;;
77866;SDS011;67271;59.120;37.970;2024-01-30T09:13:49;9.88;;;4.75;;
77866;SDS011;67271;59.120;37.970;2024-01-30T09:16:15;19.23;;;5.13;;
77866;SDS011;67271;59.120;37.970;2024-01-30T09:18:41;8.85;;;4.70;;
77866;SDS011;67271;59.120;37.970;2024-01-30T09:21:07;6.78;;;3.40;;
77866;SDS011;67271;59.120;37.970;2024-01-30T09:23:33;11.50;;;4.53;;
77866;SDS011;67271;59.120;37.970;2024-01-30T09:25:59;10.15;;;4.82;;
77866;SDS011;67271;59.120;37.970;2024-01-30T09:28:25;14.10;;;5.53;;
77866;SDS011;67271;59.120;37.970;2024-01-30T09:30:51;15.60;;;5.57;;
77866;SDS011;67271;59.120;37.970;2024-01-30T09:33:17;9.25;;;4.10;;
77866;SDS011;67271;59.120;37.970;2024-01-30T09:35:43;8.40;;;4.40;;
77866;SDS011;67271;59.120;37.970;2024-01-30T09:38:09;17.27;;;5.90;;
77866;SDS011;67271;59.120;37.970;2024-01-30T09:40:36;9.02;;;3.63;;
77866;SDS011;67271;59.120;37.970;2024-01-30T09:43:01;15.50;;;4.20;;
77866;SDS011;67271;59.120;37.970;2024-01-30T09:45:28;9.23;;;5.55;;
77866;SDS011;67271;59.120;37.970;2024-01-30T09:47:55;13.02;;;4.30;;
77866;SDS011;67271;59.120;37.970;2024-01-30T09:50:21;11.40;;;5.57;;
77866;SDS011;67271;59.120;37.970;2024-01-30T09:52:47;13.07;;;4.65;;
77866;SDS011;67271;59.120;37.970;2024-01-30T09:55:13;16.17;;;4.95;;
77866;SDS011;67271;59.120;37.970;2024-01-30T09:57:39;9.80;;;4.32;;
77866;SDS011;67271;59.120;37.970;2024-01-30T10:00:07;11.98;;;5.57;;
77866;SDS011;67271;59.120;37.970;2024-01-30T10:02:40;8.82;;;5.10;;
77866;SDS011;67271;59.120;37.970;2024-01-30T10:05:07;10.05;;;3.72;;
77866;SDS011;67271;59.120;37.970;2024-01-30T10:07:34;13.15;;;4.57;;
77866;SDS011;67271;59.120;37.970;2024-01-30T10:10:00;17.95;;;5.68;;
77866;SDS011;67271;59.120;37.970;2024-01-30T10:12:26;14.13;;;4.68;;
77866;SDS011;67271;59.120;37.970;2024-01-30T10:14:52;13.60;;;4.88;;
77866;SDS011;67271;59.120;37.970;2024-01-30T10:17:19;12.13;;;4.88;;
77866;SDS011;67271;59.120;37.970;2024-01-30T10:19:46;10.55;;;2.33;;
77866;SDS011;67271;59.120;37.970;2024-01-30T10:22:12;12.25;;;5.35;;
77866;SDS011;67271;59.120;37.970;2024-01-30T10:24:38;14.68;;;4.53;;
77866;SDS011;67271;59.120;37.970;2024-01-30T10:27:05;18.48;;;5.47;;
77866;SDS011;67271;59.120;37.970;2024-01-30T10:29:32;12.70;;;4.72;;
77866;SDS011;67271;59.120;37.970;2024-01-30T10:32:01;5.50;;;2.90;;
77866;SDS011;67271;59.120;37.970;2024-01-30T10:34:28;8.90;;;3.55;;
77866;SDS011;67271;59.120;37.970;2024-01-30T10:36:59;22.48;;;4.32;;
77866;SDS011;67271;59.120;37.970;2024-01-30T10:39:31;13.20;;;4.97;;
77866;SDS011;67271;59.120;37.970;2024-01-30T10:42:04;9.93;;;4.47;;
77866;SDS011;67271;59.120;37.970;2024-01-30T10:47:11;6.32;;;4.25;;
77866;SDS011;67271;59.120;37.970;2024-01-30T10:49:39;17.02;;;4.43;;
77866;SDS011;67271;59.120;37.970;2024-01-30T10:52:11;9.77;;;3.80;;
77866;SDS011;67271;59.120;37.970;2024-01-30T10:54:39;4.00;;;2.60;;
77866;SDS011;67271;59.120;37.970;2024-01-30T10:57:05;9.57;;;3.88;;
77866;SDS011;67271;59.120;37.970;2024-01-30T10:59:33;5.53;;;3.05;;
77866;SDS011;67271;59.120;37.970;2024-01-30T11:01:59;6.55;;;3.55;;
77866;SDS011;67271;59.120;37.970;2024-01-30T11:04:25;7.20;;;3.33;;
77866;SDS011;67271;59.120;37.970;2024-01-30T11:06:51;10.57;;;3.53;;
77866;SDS011;67271;59.120;37.970;2024-01-30T11:09:18;9.98;;;4.43;;
77866;SDS011;67271;59.120;37.970;2024-01-30T11:11:50;13.52;;;4.53;;
77866;SDS011;67271;59.120;37.970;2024-01-30T11:14:24;10.88;;;3.60;;
77866;SDS011;67271;59.120;37.970;2024-01-30T11:16:52;15.73;;;4.95;;
77866;SDS011;67271;59.120;37.970;2024-01-30T11:19:25;7.07;;;3.30;;
77866;SDS011;67271;59.120;37.970;2024-01-30T11:21:54;10.25;;;3.42;;
77866;SDS011;67271;59.120;37.970;2024-01-30T11:24:22;9.18;;;2.90;;
77866;SDS011;67271;59.120;37.970;2024-01-30T11:26:58;6.93;;;2.47;;
77866;SDS011;67271;59.120;37.970;2024-01-30T11:29:25;11.18;;;4.45;;
77866;SDS011;67271;59.120;37.970;2024-01-30T11:31:53;4.75;;;2.75;;
77866;SDS011;67271;59.120;37.970;2024-01-30T11:34:22;12.32;;;3.65;;
77866;SDS011;67271;59.120;37.970;2024-01-30T11:36:52;8.07;;;3.85;;
77866;SDS011;67271;59.120;37.970;2024-01-30T11:39:27;8.38;;;3.60;;
77866;SDS011;67271;59.120;37.970;2024-01-30T11:41:54;9.27;;;3.45;;
77866;SDS011;67271;59.120;37.970;2024-01-30T11:44:21;15.68;;;3.08;;
77866;SDS011;67271;59.120;37.970;2024-01-30T11:46:48;7.95;;;5.25;;
77866;SDS011;67271;59.120;37.970;2024-01-30T11:49:15;10.95;;;3.10;;
77866;SDS011;67271;59.120;37.970;2024-01-30T11:51:41;11.13;;;4.47;;
77866;SDS011;67271;59.120;37.970;2024-01-30T11:54:07;13.68;;;2.85;;
77866;SDS011;67271;59.120;37.970;2024-01-30T11:56:34;8.00;;;3.60;;
77866;SDS011;67271;59.120;37.970;2024-01-30T11:59:00;7.60;;;3.00;;
77866;SDS011;67271;59.120;37.970;2024-01-30T12:01:26;13.43;;;3.67;;
77866;SDS011;67271;59.120;37.970;2024-01-30T12:03:52;19.48;;;4.18;;
77866;SDS011;67271;59.120;37.970;2024-01-30T12:06:18;13.82;;;4.53;;
77866;SDS011;67271;59.120;37.970;2024-01-30T12:09:05;9.43;;;4.05;;
77866;SDS011;67271;59.120;37.970;2024-01-30T12:11:33;7.13;;;3.47;;
77866;SDS011;67271;59.120;37.970;2024-01-30T12:14:09;11.20;;;3.60;;
77866;SDS011;67271;59.120;37.970;2024-01-30T12:16:35;13.20;;;4.50;;
77866;SDS011;67271;59.120;37.970;2024-01-30T12:19:02;6.00;;;3.35;;
77866;SDS011;67271;59.120;37.970;2024-01-30T12:21:28;11.43;;;4.13;;
77866;SDS011;67271;59.120;37.970;2024-01-30T12:23:55;4.63;;;3.20;;
77866;SDS011;67271;59.120;37.970;2024-01-30T12:26:23;10.38;;;3.55;;
77866;SDS011;67271;59.120;37.970;2024-01-30T12:28:50;6.65;;;3.05;;
77866;SDS011;67271;59.120;37.970;2024-01-30T12:31:25;13.90;;;3.65;;
77866;SDS011;67271;59.120;37.970;2024-01-30T12:33:54;12.43;;;3.08;;
77866;SDS011;67271;59.120;37.970;2024-01-30T12:36:21;7.32;;;3.45;;
77866;SDS011;67271;59.120;37.970;2024-01-30T12:38:47;7.80;;;3.70;;
77866;SDS011;67271;59.120;37.970;2024-01-30T12:41:14;8.98;;;3.40;;
77866;SDS011;67271;59.120;37.970;2024-01-30T12:43:39;10.75;;;4.10;;
77866;SDS011;67271;59.120;37.970;2024-01-30T12:46:05;6.22;;;3.55;;
77866;SDS011;67271;59.120;37.970;2024-01-30T12:48:31;12.55;;;4.63;;
77866;SDS011;67271;59.120;37.970;2024-01-30T12:50:57;9.73;;;4.78;;
77866;SDS011;67271;59.120;37.970;2024-01-30T12:53:23;6.88;;;3.67;;
77866;SDS011;67271;59.120;37.970;2024-01-30T12:55:49;13.73;;;5.82;;
77866;SDS011;67271;59.120;37.970;2024-01-30T12:58:15;8.55;;;4.05;;
77866;SDS011;67271;59.120;37.970;2024-01-30T13:00:41;11.63;;;5.43;;
77866;SDS011;67271;59.120;37.970;2024-01-30T13:03:10;17.42;;;4.72;;
77866;SDS011;67271;59.120;37.970;2024-01-30T13:05:36;10.50;;;4.53;;
77866;SDS011;67271;59.120;37.970;2024-01-30T13:08:02;7.93;;;3.92;;
77866;SDS011;67271;59.120;37.970;2024-01-30T13:10:28;4.65;;;3.03;;
77866;SDS011;67271;59.120;37.970;2024-01-30T13:12:54;13.55;;;4.50;;
77866;SDS011;67271;59.120;37.970;2024-01-30T13:15:20;10.90;;;4.15;;
77866;SDS011;67271;59.120;37.970;2024-01-30T13:17:48;13.63;;;4.43;;
77866;SDS011;67271;59.120;37.970;2024-01-30T13:20:15;9.75;;;4.50;;
77866;SDS011;67271;59.120;37.970;2024-01-30T13:22:48;9.30;;;3.70;;
77866;SDS011;67271;59.120;37.970;2024-01-30T13:25:17;11.98;;;4.72;;
77866;SDS011;67271;59.120;37.970;2024-01-30T13:27:43;12.32;;;5.65;;
77866;SDS011;67271;59.120;37.970;2024-01-30T13:30:09;15.07;;;5.55;;
77866;SDS011;67271;59.120;37.970;2024-01-30T13:32:35;11.73;;;5.25;;
77866;SDS011;67271;59.120;37.970;2024-01-30T13:35:01;13.68;;;6.07;;
77866;SDS011;67271;59.120;37.970;2024-01-30T13:37:27;12.38;;;5.53;;
77866;SDS011;67271;59.120;37.970;2024-01-30T13:39:53;12.85;;;4.47;;
77866;SDS011;67271;59.120;37.970;2024-01-30T13:42:19;13.02;;;4.57;;
77866;SDS011;67271;59.120;37.970;2024-01-30T13:44:45;15.75;;;4.38;;
77866;SDS011;67271;59.120;37.970;2024-01-30T13:47:11;15.27;;;5.13;;
77866;SDS011;67271;59.120;37.970;2024-01-30T13:49:36;7.97;;;3.33;;
77866;SDS011;67271;59.120;37.970;2024-01-30T13:52:02;6.75;;;3.13;;
77866;SDS011;67271;59.120;37.970;2024-01-30T13:54:29;8.25;;;2.85;;
77866;SDS011;67271;59.120;37.970;2024-01-30T13:56:56;13.45;;;3.63;;
77866;SDS011;67271;59.120;37.970;2024-01-30T13:59:22;4.13;;;2.95;;
77866;SDS011;67271;59.120;37.970;2024-01-30T14:01:50;5.40;;;3.15;;
77866;SDS011;67271;59.120;37.970;2024-01-30T14:04:17;16.60;;;4.00;;
77866;SDS011;67271;59.120;37.970;2024-01-30T14:06:47;11.73;;;4.57;;
77866;SDS011;67271;59.120;37.970;2024-01-30T14:09:13;11.55;;;3.50;;
77866;SDS011;67271;59.120;37.970;2024-01-30T14:11:41;9.55;;;4.47;;
77866;SDS011;67271;59.120;37.970;2024-01-30T14:14:07;11.27;;;4.18;;
77866;SDS011;67271;59.120;37.970;2024-01-30T14:16:33;4.57;;;2.78;;
77866;SDS011;67271;59.120;37.970;2024-01-30T14:18:59;6.32;;;3.72;;
77866;SDS011;67271;59.120;37.970;2024-01-30T14:21:24;7.65;;;4.40;;
77866;SDS011;67271;59.120;37.970;2024-01-30T14:23:50;11.95;;;3.83;;
77866;SDS011;67271;59.120;37.970;2024-01-30T14:26:16;8.35;;;4.72;;